createdAt,value
2022-10-04T00:00:41.444Z,101222.44
2022-10-04T00:02:00.702Z,101192.38
2022-10-04T00:03:25.249Z,101244.84
2022-10-04T00:04:52.710Z,101244.00
2022-10-04T00:05:58.228Z,101238.09
2022-10-04T00:07:07.189Z,101238.59
2022-10-04T00:08:20.640Z,101243.00
2022-10-04T00:09:26.781Z,101200.97
2022-10-04T00:10:34.288Z,101241.16
2022-10-04T00:11:38.011Z,101240.97
2022-10-04T00:12:48.662Z,101154.66
2022-10-04T00:13:57.057Z,101192.56
2022-10-04T00:15:03.365Z,101228.84
2022-10-04T00:16:05.921Z,101188.84
2022-10-04T00:17:18.099Z,101196.94
2022-10-04T00:18:37.338Z,101235.75
2022-10-04T00:19:39.348Z,101242.84
2022-10-04T00:20:50.686Z,101237.78
2022-10-04T00:21:58.379Z,101242.31
2022-10-04T00:23:24.827Z,101237.25
2022-10-04T00:24:35.644Z,101241.31
2022-10-04T00:25:37.456Z,101199.63
2022-10-04T00:26:39.085Z,101233.56
2022-10-04T00:28:27.069Z,101220.91
2022-10-04T00:29:37.810Z,101208.28
2022-10-04T00:30:39.526Z,101193.56
2022-10-04T00:32:11.803Z,101231.19
2022-10-04T00:33:34.765Z,101230.03
2022-10-04T00:34:36.405Z,101241.16
2022-10-04T00:35:38.052Z,101231.88
2022-10-04T00:36:51.628Z,101206.91
2022-10-04T00:38:17.470Z,101203.53
2022-10-04T00:39:34.572Z,101220.75
2022-10-04T00:40:46.585Z,101185.66
2022-10-04T00:41:48.245Z,101229.19
2022-10-04T00:42:58.830Z,101227.16
2022-10-04T00:44:02.469Z,101211.97
2022-10-04T00:45:14.013Z,101165.91
2022-10-04T00:46:23.832Z,101207.75
2022-10-04T00:47:57.525Z,101229.03
2022-10-04T00:49:05.036Z,101158.84
2022-10-04T00:50:33.470Z,101231.06
2022-10-04T00:52:03.235Z,101198.44
2022-10-04T00:53:15.028Z,101231.88
2022-10-04T00:54:26.139Z,101195.41
2022-10-04T00:55:52.053Z,101240.13
2022-10-04T00:57:00.533Z,101196.63
2022-10-04T00:58:08.516Z,101222.06
2022-10-04T00:59:44.482Z,101225.13
2022-10-04T01:00:49.170Z,101229.66
2022-10-04T01:01:56.484Z,101201.66
2022-10-04T01:03:07.490Z,101205.88
2022-10-04T01:04:44.501Z,101230.88
2022-10-04T01:05:51.255Z,101232.56
2022-10-04T01:06:54.124Z,101234.69
2022-10-04T01:08:09.007Z,101195.41
2022-10-04T01:09:13.081Z,101171.97
2022-10-04T01:10:21.591Z,101195.59
2022-10-04T01:11:30.518Z,101163.75
2022-10-04T01:12:38.181Z,101213.81
2022-10-04T01:13:58.791Z,101172.84
2022-10-04T01:15:32.098Z,101196.09
2022-10-04T01:16:36.494Z,101182.13
2022-10-04T01:17:38.411Z,101209.09
2022-10-04T01:18:40.607Z,101195.09
2022-10-04T01:19:52.548Z,101233.88
2022-10-04T01:21:19.467Z,101236.91
2022-10-04T01:22:41.912Z,101230.16
2022-10-04T01:23:46.837Z,101224.44
2022-10-04T01:24:48.523Z,101156.47
2022-10-04T01:25:51.348Z,101212.13
2022-10-04T01:26:53.140Z,101176.38
2022-10-04T01:27:55.089Z,101199.97
2022-10-04T01:29:22.720Z,101222.91
2022-10-04T01:30:24.459Z,101172.16
2022-10-04T01:31:27.550Z,101223.44
2022-10-04T01:32:31.196Z,101220.88
2022-10-04T01:33:32.997Z,101152.94
2022-10-04T01:34:34.737Z,101222.06
2022-10-04T01:35:36.587Z,101175.69
2022-10-04T01:36:38.577Z,101195.75
2022-10-04T01:37:41.155Z,101195.41
2022-10-04T01:38:42.908Z,101219.53
2022-10-04T01:39:44.757Z,101180.94
2022-10-04T01:40:57.427Z,101198.78
2022-10-04T01:42:20.456Z,101214.63
2022-10-04T01:43:29.907Z,101182.94
2022-10-04T01:45:16.621Z,101198.63
2022-10-04T01:46:29.411Z,101181.94
2022-10-04T01:47:42.526Z,101213.97
2022-10-04T01:48:45.992Z,101163.56
2022-10-04T01:49:49.084Z,101191.22
2022-10-04T01:51:05.576Z,101178.38
2022-10-04T01:52:33.996Z,101186.16
2022-10-04T01:53:46.786Z,101148.59
2022-10-04T01:54:52.226Z,101163.75
2022-10-04T01:56:04.145Z,101165.09
2022-10-04T01:57:23.952Z,101188.34
2022-10-04T01:58:31.397Z,101178.91
2022-10-04T01:59:49.836Z,101206.72
2022-10-04T02:01:07.106Z,101156.47
2022-10-04T02:02:34.542Z,101140.50
2022-10-04T02:03:42.454Z,101180.09
2022-10-04T02:04:49.710Z,101208.75
2022-10-04T02:05:55.225Z,101159.69
2022-10-04T02:07:00.478Z,101158.34
2022-10-04T02:08:06.485Z,101109.44
2022-10-04T02:09:12.858Z,101194.06
2022-10-04T02:10:20.930Z,101204.84
2022-10-04T02:11:23.218Z,101123.63
2022-10-04T02:12:27.100Z,101164.09
2022-10-04T02:13:35.762Z,101201.34
2022-10-04T02:14:43.207Z,101192.72
2022-10-04T02:15:47.584Z,101204.03
2022-10-04T02:16:53.354Z,101173.34
2022-10-04T02:17:56.913Z,101181.09
2022-10-04T02:18:59.521Z,101136.09
2022-10-04T02:20:02.679Z,101110.97
2022-10-04T02:21:06.700Z,101167.59
2022-10-04T02:22:10.928Z,101191.91
2022-10-04T02:23:13.244Z,101161.19
2022-10-04T02:24:15.564Z,101106.75
2022-10-04T02:25:20.471Z,101117.72
2022-10-04T02:26:22.185Z,101191.03
2022-10-04T02:27:31.737Z,101137.63
2022-10-04T02:28:35.040Z,101163.22
2022-10-04T02:29:36.946Z,101188.34
2022-10-04T02:30:41.427Z,101160.38
2022-10-04T02:32:02.390Z,101134.72
2022-10-04T02:33:04.714Z,101186.16
2022-10-04T02:34:07.150Z,101146.53
2022-10-04T02:35:08.904Z,101129.53
2022-10-04T02:36:11.929Z,101178.06
2022-10-04T02:37:15.394Z,101103.19
2022-10-04T02:38:22.625Z,101150.25
2022-10-04T02:39:30.388Z,101037.66
2022-10-04T02:40:39.626Z,101135.06
2022-10-04T02:41:52.406Z,101138.97
2022-10-04T02:43:10.911Z,101157.00
2022-10-04T02:44:18.550Z,101167.59
2022-10-04T02:45:27.823Z,101079.28
2022-10-04T02:46:55.744Z,101169.13
2022-10-04T02:48:15.814Z,101143.00
2022-10-04T02:49:41.994Z,101114.53
2022-10-04T02:50:52.010Z,101142.84
2022-10-04T02:52:02.286Z,101172.84
2022-10-04T02:53:30.014Z,101131.72
2022-10-04T02:54:49.602Z,101150.94
2022-10-04T02:55:51.748Z,101094.84
2022-10-04T02:56:55.632Z,101168.13
2022-10-04T02:57:58.748Z,101108.31
2022-10-04T02:59:02.708Z,101121.44
2022-10-04T03:00:10.718Z,101163.41
2022-10-04T03:01:25.874Z,101070.69
2022-10-04T03:02:30.783Z,101105.28
2022-10-04T03:03:39.480Z,101160.72
2022-10-04T03:04:41.409Z,101107.09
2022-10-04T03:05:55.499Z,101111.16
2022-10-04T03:07:00.507Z,101126.84
2022-10-04T03:08:05.015Z,101085.53
2022-10-04T03:09:07.276Z,101172.66
2022-10-04T03:10:12.483Z,101053.50
2022-10-04T03:11:19.109Z,101152.97
2022-10-04T03:12:22.288Z,101129.19
2022-10-04T03:13:24.316Z,101103.25
2022-10-04T03:14:28.943Z,101111.16
2022-10-04T03:15:32.669Z,101085.53
2022-10-04T03:16:38.106Z,101093.78
2022-10-04T03:17:44.329Z,101095.63
2022-10-04T03:18:48.313Z,101090.56
2022-10-04T03:19:50.419Z,101110.47
2022-10-04T03:20:52.518Z,101157.69
2022-10-04T03:21:57.674Z,101156.16
2022-10-04T03:22:59.448Z,101103.72
2022-10-04T03:24:04.252Z,101105.38
2022-10-04T03:25:06.897Z,101149.94
2022-10-04T03:26:22.600Z,101122.78
2022-10-04T03:27:34.400Z,101140.66
2022-10-04T03:28:37.502Z,101044.59
2022-10-04T03:29:41.039Z,101123.13
2022-10-04T03:30:44.755Z,101015.44
2022-10-04T03:31:50.493Z,101097.66
2022-10-04T03:32:53.186Z,101116.22
2022-10-04T03:33:58.612Z,101116.38
2022-10-04T03:35:04.113Z,101100.34
2022-10-04T03:36:07.106Z,101085.53
2022-10-04T03:37:15.640Z,101145.69
2022-10-04T03:38:18.286Z,101079.13
2022-10-04T03:39:28.648Z,101145.69
2022-10-04T03:40:33.282Z,101129.19
2022-10-04T03:41:39.264Z,101105.94
2022-10-04T03:42:41.364Z,101103.75
2022-10-04T03:43:46.446Z,101134.09
2022-10-04T03:44:51.730Z,101130.72
2022-10-04T03:45:54.027Z,101075.91
2022-10-04T03:46:56.037Z,101104.41
2022-10-04T03:48:05.125Z,101126.34
2022-10-04T03:49:08.413Z,101081.16
2022-10-04T03:50:26.712Z,101097.00
2022-10-04T03:51:29.492Z,101077.09
2022-10-04T03:52:34.969Z,101136.13
2022-10-04T03:53:44.038Z,101131.56
2022-10-04T03:54:47.461Z,101092.78
2022-10-04T03:55:49.218Z,101130.72
2022-10-04T03:56:54.322Z,101111.81
2022-10-04T03:57:56.911Z,101060.94
2022-10-04T03:58:59.431Z,101032.63
2022-10-04T04:00:01.911Z,101083.50
2022-10-04T04:01:26.085Z,101123.66
2022-10-04T04:02:33.784Z,101118.94
2022-10-04T04:03:46.940Z,101117.06
2022-10-04T04:05:11.684Z,101120.09
2022-10-04T04:06:19.014Z,101072.38
2022-10-04T04:07:28.339Z,101078.31
2022-10-04T04:08:33.982Z,101082.53
2022-10-04T04:09:41.374Z,101111.19
2022-10-04T04:10:48.268Z,101094.84
2022-10-04T04:11:51.611Z,101113.19
2022-10-04T04:12:58.577Z,101079.13
2022-10-04T04:14:10.975Z,101076.25
2022-10-04T04:15:14.779Z,101054.19
2022-10-04T04:16:19.440Z,101019.69
2022-10-04T04:17:29.753Z,101107.09
2022-10-04T04:18:38.676Z,101111.50
2022-10-04T04:19:41.059Z,101076.09
2022-10-04T04:20:44.351Z,101063.78
2022-10-04T04:21:46.896Z,101091.09
2022-10-04T04:22:58.328Z,101086.00
2022-10-04T04:24:05.509Z,101090.25
2022-10-04T04:25:14.465Z,101097.53
2022-10-04T04:26:36.974Z,101081.03
2022-10-04T04:27:41.131Z,101068.50
2022-10-04T04:28:49.153Z,101080.47
2022-10-04T04:29:53.249Z,101021.50
2022-10-04T04:31:07.747Z,101110.66
2022-10-04T04:32:18.388Z,101121.44
2022-10-04T04:33:45.057Z,101111.84
2022-10-04T04:35:00.870Z,101109.16
2022-10-04T04:36:07.220Z,101103.25
2022-10-04T04:37:10.797Z,101109.81
2022-10-04T04:38:22.011Z,101109.13
2022-10-04T04:39:41.099Z,101107.28
2022-10-04T04:40:43.233Z,101075.63
2022-10-04T04:41:50.179Z,100932.06
2022-10-04T04:42:52.995Z,101072.72
2022-10-04T04:43:55.070Z,101070.38
2022-10-04T04:45:00.736Z,101058.91
2022-10-04T04:46:26.139Z,101068.50
2022-10-04T04:47:35.211Z,101090.25
2022-10-04T04:48:37.521Z,101052.19
2022-10-04T04:49:40.428Z,101105.09
2022-10-04T04:50:42.441Z,101092.63
2022-10-04T04:51:50.991Z,101074.25
2022-10-04T04:52:57.799Z,101096.34
2022-10-04T04:54:03.687Z,101093.81
2022-10-04T04:55:15.487Z,101089.94
2022-10-04T04:56:21.548Z,101068.69
2022-10-04T04:57:23.806Z,101098.00
2022-10-04T04:58:33.030Z,101058.91
2022-10-04T04:59:37.153Z,101038.53
2022-10-04T05:00:39.835Z,101100.03
2022-10-04T05:01:47.107Z,101065.81
2022-10-04T05:03:03.126Z,101094.66
2022-10-04T05:04:12.684Z,101091.81
2022-10-04T05:05:14.433Z,101085.56
2022-10-04T05:06:26.629Z,101055.56
2022-10-04T05:07:29.567Z,101082.84
2022-10-04T05:08:38.585Z,101088.44
2022-10-04T05:09:42.980Z,101081.84
2022-10-04T05:10:52.001Z,101035.16
2022-10-04T05:11:59.627Z,101081.84
2022-10-04T05:13:03.789Z,101078.00
2022-10-04T05:14:09.587Z,101037.38
2022-10-04T05:15:11.537Z,101046.47
2022-10-04T05:16:25.780Z,101036.00
2022-10-04T05:17:34.796Z,101029.84
2022-10-04T05:18:36.547Z,101039.41
2022-10-04T05:19:40.244Z,101038.41
2022-10-04T05:20:49.714Z,101024.44
2022-10-04T05:21:57.289Z,101047.16
2022-10-04T05:22:59.388Z,101067.19
2022-10-04T05:24:17.747Z,101080.81
2022-10-04T05:25:33.614Z,101048.50
2022-10-04T05:26:35.352Z,101040.41
2022-10-04T05:27:39.813Z,101075.06
2022-10-04T05:28:41.837Z,101007.06
2022-10-04T05:30:10.310Z,101073.72
2022-10-04T05:31:28.832Z,101071.34
2022-10-04T05:32:54.612Z,101072.38
2022-10-04T05:33:58.795Z,101008.88
2022-10-04T05:35:01.875Z,101043.03
2022-10-04T05:36:13.827Z,101068.31
2022-10-04T05:37:37.037Z,101063.91
2022-10-04T05:39:06.850Z,101039.31
2022-10-04T05:40:56.892Z,101061.66
2022-10-04T05:42:07.844Z,101070.09
2022-10-04T05:43:45.682Z,101066.53
2022-10-04T05:44:52.537Z,101065.00
2022-10-04T05:46:26.404Z,101069.53
2022-10-04T05:47:30.703Z,101014.34
2022-10-04T05:48:33.876Z,101041.44
2022-10-04T05:49:46.643Z,101019.91
2022-10-04T05:50:48.897Z,101060.78
2022-10-04T05:52:01.092Z,101032.50
2022-10-04T05:53:33.557Z,100986.41
2022-10-04T05:54:36.060Z,101036.16
2022-10-04T05:55:53.081Z,100997.50
2022-10-04T05:57:07.015Z,101070.16
2022-10-04T05:58:28.629Z,101053.34
2022-10-04T05:59:48.804Z,101074.19
2022-10-04T06:01:26.706Z,101049.63
2022-10-04T06:02:37.691Z,101077.19
2022-10-04T06:03:45.500Z,101077.53
2022-10-04T06:04:53.292Z,101080.25
2022-10-04T06:05:57.504Z,101078.56
2022-10-04T06:07:17.778Z,101022.22
2022-10-04T06:08:27.480Z,101063.78
2022-10-04T06:09:56.054Z,101076.16
2022-10-04T06:11:13.552Z,101034.47
2022-10-04T06:12:40.142Z,101060.22
2022-10-04T06:14:21.034Z,101089.66
2022-10-04T06:15:36.628Z,101081.56
2022-10-04T06:17:04.288Z,101089.16
2022-10-04T06:18:13.761Z,101051.97
2022-10-04T06:19:47.030Z,101084.41
2022-10-04T06:21:13.126Z,101085.44
2022-10-04T06:22:22.960Z,101047.22
2022-10-04T06:23:26.696Z,101059.88
2022-10-04T06:24:34.063Z,101088.66
2022-10-04T06:25:57.283Z,101013.81
2022-10-04T06:27:09.365Z,101062.06
2022-10-04T06:28:21.169Z,101008.88
2022-10-04T06:29:29.707Z,101039.53
2022-10-04T06:30:53.742Z,101065.78
2022-10-04T06:32:11.277Z,101082.91
2022-10-04T06:34:10.187Z,101084.59
2022-10-04T06:35:20.780Z,101080.22
2022-10-04T06:36:31.737Z,101064.75
2022-10-04T06:38:08.873Z,101075.47
2022-10-04T06:39:25.561Z,101082.41
2022-10-04T06:40:36.441Z,101088.84
2022-10-04T06:41:38.285Z,101079.00
2022-10-04T06:43:26.328Z,101062.66
2022-10-04T06:45:17.838Z,101085.63
2022-10-04T06:46:43.643Z,101082.72
2022-10-04T06:47:54.626Z,101090.16
2022-10-04T06:49:25.520Z,101087.66
2022-10-04T06:50:48.208Z,101086.44
2022-10-04T06:51:56.900Z,101080.56
2022-10-04T06:53:04.305Z,101081.88
2022-10-04T06:54:38.830Z,100971.53
2022-10-04T06:56:03.145Z,101078.53
2022-10-04T06:57:08.435Z,101090.66
2022-10-04T06:58:34.206Z,101057.00
2022-10-04T06:59:46.096Z,101096.03
2022-10-04T07:00:58.666Z,101064.44
2022-10-04T07:02:06.892Z,101007.56
2022-10-04T07:03:26.513Z,101082.94
2022-10-04T07:05:07.413Z,101044.56
2022-10-04T07:06:11.782Z,101056.66
2022-10-04T07:07:42.143Z,101089.34
2022-10-04T07:08:50.692Z,101092.34
2022-10-04T07:10:17.305Z,101096.78
2022-10-04T07:11:18.992Z,101093.22
2022-10-04T07:12:21.378Z,101061.75
2022-10-04T07:13:28.803Z,101090.34
2022-10-04T07:14:45.271Z,101060.22
2022-10-04T07:16:00.579Z,101078.34
2022-10-04T07:17:10.261Z,101082.91
2022-10-04T07:18:22.248Z,101085.59
2022-10-04T07:19:42.307Z,100981.00
2022-10-04T07:20:45.666Z,101061.38
2022-10-04T07:22:12.399Z,101037.97
2022-10-04T07:23:28.932Z,101062.34
2022-10-04T07:24:51.023Z,101076.66
2022-10-04T07:26:02.000Z,101043.00
2022-10-04T07:27:08.520Z,101070.41
2022-10-04T07:28:29.023Z,101077.13
2022-10-04T07:29:42.338Z,101003.78
2022-10-04T07:30:51.832Z,101039.78
2022-10-04T07:32:09.403Z,101077.13
2022-10-04T07:33:17.294Z,101070.91
2022-10-04T07:34:52.622Z,100994.72
2022-10-04T07:36:11.384Z,100996.19
2022-10-04T07:37:14.347Z,101046.31
2022-10-04T07:38:23.921Z,101042.66
2022-10-04T07:39:33.720Z,101059.44
2022-10-04T07:40:40.872Z,100928.06
2022-10-04T07:41:51.972Z,101065.88
2022-10-04T07:43:04.867Z,101031.84
2022-10-04T07:44:27.591Z,100975.16
2022-10-04T07:45:33.359Z,100993.69
2022-10-04T07:46:52.979Z,101054.53
2022-10-04T07:48:16.044Z,101004.56
2022-10-04T07:49:21.225Z,101032.66
2022-10-04T07:50:24.828Z,100923.03
2022-10-04T07:51:41.748Z,101052.16
2022-10-04T07:53:08.550Z,101025.41
2022-10-04T07:54:29.916Z,101055.25
2022-10-04T07:56:03.333Z,101022.88
2022-10-04T07:57:49.411Z,101046.59
2022-10-04T07:59:04.135Z,101052.50
2022-10-04T08:00:17.789Z,101012.78
2022-10-04T08:01:47.243Z,101042.41
2022-10-04T08:03:13.874Z,101045.94
2022-10-04T08:04:42.609Z,101003.50
2022-10-04T08:06:14.775Z,101016.75
2022-10-04T08:07:27.265Z,100974.75
2022-10-04T08:08:50.544Z,101038.03
2022-10-04T08:10:30.332Z,101034.75
2022-10-04T08:11:56.876Z,101039.34
2022-10-04T08:13:14.714Z,101016.41
2022-10-04T08:14:39.382Z,100983.44
2022-10-04T08:15:44.318Z,100937.03
2022-10-04T08:16:55.104Z,101027.38
2022-10-04T08:18:11.477Z,101031.09
2022-10-04T08:19:36.331Z,100947.81
2022-10-04T08:20:43.978Z,101034.28
2022-10-04T08:21:52.502Z,101025.53
2022-10-04T08:23:15.365Z,101030.94
2022-10-04T08:24:29.517Z,101032.25
2022-10-04T08:25:33.797Z,101027.88
2022-10-04T08:26:54.072Z,101025.34
2022-10-04T08:28:33.206Z,101022.47
2022-10-04T08:29:59.175Z,101028.47
2022-10-04T08:31:26.984Z,100991.75
2022-10-04T08:32:47.105Z,101024.25
2022-10-04T08:34:04.961Z,100991.28
2022-10-04T08:35:11.575Z,101022.78
2022-10-04T08:36:25.180Z,101023.78
2022-10-04T08:37:42.571Z,101001.22
2022-10-04T08:38:58.756Z,100914.84
2022-10-04T08:40:13.226Z,101027.16
2022-10-04T08:41:36.497Z,101019.22
2022-10-04T08:42:59.786Z,100992.09
2022-10-04T08:44:31.670Z,101030.16
2022-10-04T08:46:01.445Z,100995.28
2022-10-04T08:47:41.087Z,101026.06
2022-10-04T08:49:19.927Z,101019.50
2022-10-04T08:50:21.784Z,101017.78
2022-10-04T08:51:58.734Z,100994.97
2022-10-04T08:53:31.808Z,100985.31
2022-10-04T08:55:01.406Z,101017.78
2022-10-04T08:56:11.056Z,101019.81
2022-10-04T08:57:43.754Z,101028.78
2022-10-04T08:59:06.952Z,101024.41
2022-10-04T09:00:21.445Z,100989.72
2022-10-04T09:01:52.447Z,101016.09
2022-10-04T09:02:54.310Z,101023.38
2022-10-04T09:04:14.615Z,101023.06
2022-10-04T09:05:34.848Z,101015.28
2022-10-04T09:06:56.644Z,100991.09
2022-10-04T09:08:10.318Z,100968.16
2022-10-04T09:09:29.031Z,100978.25
2022-10-04T09:10:40.365Z,100978.25
2022-10-04T09:11:51.388Z,101013.59
2022-10-04T09:13:31.377Z,101013.22
2022-10-04T09:15:02.606Z,101017.06
2022-10-04T09:16:17.771Z,101016.22
2022-10-04T09:17:39.403Z,100991.25
2022-10-04T09:18:50.088Z,101020.97
2022-10-04T09:20:37.900Z,101020.31
2022-10-04T09:21:54.685Z,101022.94
2022-10-04T09:23:11.969Z,100981.31
2022-10-04T09:24:38.880Z,101021.25
2022-10-04T09:25:56.496Z,101022.47
2022-10-04T09:27:50.104Z,101016.88
2022-10-04T09:29:04.712Z,101027.16
2022-10-04T09:30:20.194Z,101024.63
2022-10-04T09:31:51.224Z,101034.91
2022-10-04T09:33:46.369Z,101031.34
2022-10-04T09:35:03.991Z,101027.25
2022-10-04T09:36:05.709Z,101022.41
2022-10-04T09:37:31.621Z,101024.63
2022-10-04T09:39:11.496Z,101021.09
2022-10-04T09:40:28.779Z,101019.34
2022-10-04T09:42:08.620Z,101001.47
2022-10-04T09:43:46.576Z,100953.28
2022-10-04T09:45:07.550Z,100950.22
2022-10-04T09:46:29.985Z,100992.94
2022-10-04T09:47:38.129Z,101016.00
2022-10-04T09:48:54.912Z,101012.44
2022-10-04T09:50:26.562Z,101011.41
2022-10-04T09:52:01.888Z,101002.59
2022-10-04T09:53:28.207Z,100982.41
2022-10-04T09:54:29.952Z,101009.00
2022-10-04T09:55:50.004Z,100999.78
2022-10-04T09:57:09.593Z,101003.13
2022-10-04T09:58:22.454Z,100955.91
2022-10-04T09:59:46.038Z,100997.53
2022-10-04T10:01:17.141Z,100973.28
2022-10-04T10:02:38.766Z,100996.84
2022-10-04T10:04:42.199Z,100965.53
2022-10-04T10:05:43.897Z,100995.44
2022-10-04T10:06:51.518Z,100986.56
2022-10-04T10:08:18.220Z,100972.63
2022-10-04T10:09:43.013Z,100991.97
2022-10-04T10:11:33.622Z,100989.56
2022-10-04T10:13:02.215Z,100995.44
2022-10-04T10:14:22.078Z,100984.63
2022-10-04T10:15:42.689Z,100980.78
2022-10-04T10:17:09.361Z,100992.44
2022-10-04T10:18:27.921Z,100987.69
2022-10-04T10:19:48.023Z,100988.72
2022-10-04T10:21:28.624Z,100963.78
2022-10-04T10:22:49.048Z,100987.13
2022-10-04T10:24:30.135Z,100986.31
2022-10-04T10:25:44.955Z,100948.97
2022-10-04T10:27:11.066Z,100944.13
2022-10-04T10:28:55.704Z,100984.28
2022-10-04T10:29:57.450Z,100978.88
2022-10-04T10:31:11.122Z,100980.25
2022-10-04T10:32:58.420Z,100979.22
2022-10-04T10:34:12.139Z,100977.19
2022-10-04T10:35:24.348Z,100973.81
2022-10-04T10:36:53.299Z,100934.16
2022-10-04T10:38:04.863Z,100977.34
2022-10-04T10:39:27.879Z,100974.47
2022-10-04T10:40:41.123Z,100944.22
2022-10-04T10:42:07.425Z,100977.19
2022-10-04T10:43:31.529Z,100976.16
2022-10-04T10:45:10.558Z,100975.78
2022-10-04T10:46:31.353Z,100968.13
2022-10-04T10:48:01.699Z,100973.09
2022-10-04T10:49:24.390Z,100973.91
2022-10-04T10:51:01.355Z,100968.34
2022-10-04T10:52:47.152Z,100966.94
2022-10-04T10:54:30.177Z,100964.03
2022-10-04T10:55:59.861Z,100966.94
2022-10-04T10:57:25.557Z,100965.91
2022-10-04T10:58:45.486Z,100964.41
2022-10-04T11:00:00.672Z,100940.25
2022-10-04T11:01:29.839Z,100968.50
2022-10-04T11:03:13.760Z,100943.81
2022-10-04T11:04:38.312Z,100957.16
2022-10-04T11:06:15.654Z,100915.09
2022-10-04T11:07:18.218Z,100944.28
2022-10-04T11:08:45.589Z,100914.13
2022-10-04T11:10:06.029Z,100948.19
2022-10-04T11:11:56.517Z,100954.25
2022-10-04T11:13:35.619Z,100951.00
2022-10-04T11:14:37.287Z,100942.25
2022-10-04T11:16:04.089Z,100937.22
2022-10-04T11:17:29.275Z,100935.16
2022-10-04T11:19:18.937Z,100941.59
2022-10-04T11:20:37.800Z,100904.56
2022-10-04T11:22:07.522Z,100932.63
2022-10-04T11:23:51.976Z,100932.09
2022-10-04T11:25:05.834Z,100931.06
2022-10-04T11:26:22.344Z,100902.53
2022-10-04T11:27:29.775Z,100932.81
2022-10-04T11:28:46.931Z,100878.06
2022-10-04T11:30:08.942Z,100932.81
2022-10-04T11:31:10.641Z,100929.09
2022-10-04T11:32:22.160Z,100857.94
2022-10-04T11:33:53.048Z,100924.50
2022-10-04T11:35:19.866Z,100929.91
2022-10-04T11:36:30.356Z,100921.63
2022-10-04T11:37:50.277Z,100920.13
2022-10-04T11:39:36.347Z,100913.84
2022-10-04T11:41:11.520Z,100890.97
2022-10-04T11:42:50.356Z,100913.47
2022-10-04T11:44:31.581Z,100910.75
2022-10-04T11:45:42.742Z,100901.19
2022-10-04T11:46:56.387Z,100902.53
2022-10-04T11:48:18.342Z,100911.69
2022-10-04T11:49:57.719Z,100904.53
2022-10-04T11:51:09.201Z,100904.69
2022-10-04T11:52:29.486Z,100904.22
2022-10-04T11:54:03.759Z,100895.63
2022-10-04T11:55:22.124Z,100906.72
2022-10-04T11:57:05.480Z,100903.88
2022-10-04T11:58:12.050Z,100909.09
2022-10-04T11:59:29.167Z,100907.75
2022-10-04T12:01:00.987Z,100863.56
2022-10-04T12:02:09.327Z,100900.50
2022-10-04T12:03:47.784Z,100891.34
2022-10-04T12:05:07.722Z,100894.91
2022-10-04T12:06:47.157Z,100892.88
2022-10-04T12:08:22.842Z,100858.25
2022-10-04T12:09:39.553Z,100856.47
2022-10-04T12:10:42.945Z,100901.31
2022-10-04T12:12:21.492Z,100898.81
2022-10-04T12:14:07.643Z,100900.97
2022-10-04T12:15:32.885Z,100895.41
2022-10-04T12:16:46.572Z,100899.28
2022-10-04T12:18:28.690Z,100893.88
2022-10-04T12:19:52.400Z,100900.97
2022-10-04T12:21:00.142Z,100896.59
2022-10-04T12:22:45.607Z,100887.47
2022-10-04T12:24:06.151Z,100868.31
2022-10-04T12:25:26.978Z,100894.38
2022-10-04T12:26:47.972Z,100886.81
2022-10-04T12:28:21.162Z,100866.81
2022-10-04T12:29:53.270Z,100892.69
2022-10-04T12:31:19.160Z,100881.03
2022-10-04T12:32:40.091Z,100865.34
2022-10-04T12:33:54.261Z,100889.78
2022-10-04T12:35:25.350Z,100832.63
2022-10-04T12:36:39.498Z,100881.88
2022-10-04T12:38:09.268Z,100871.44
2022-10-04T12:39:36.197Z,100804.28
2022-10-04T12:40:51.492Z,100827.94
2022-10-04T12:42:35.309Z,100875.44
2022-10-04T12:43:40.251Z,100876.25
2022-10-04T12:45:44.486Z,100870.22
2022-10-04T12:47:22.376Z,100881.78
2022-10-04T12:48:39.028Z,100880.28
2022-10-04T12:50:00.874Z,100863.84
2022-10-04T12:51:46.163Z,100849.03
2022-10-04T12:52:51.172Z,100876.91
2022-10-04T12:54:13.287Z,100873.94
2022-10-04T12:55:44.626Z,100867.34
2022-10-04T12:56:53.900Z,100864.81
2022-10-04T12:58:04.826Z,100784.06
2022-10-04T12:59:29.364Z,100845.56
2022-10-04T13:00:41.066Z,100857.50
2022-10-04T13:01:56.767Z,100870.59
2022-10-04T13:03:24.832Z,100862.94
2022-10-04T13:04:54.532Z,100862.75
2022-10-04T13:06:03.071Z,100749.69
2022-10-04T13:07:23.069Z,100862.31
2022-10-04T13:08:58.398Z,100830.19
2022-10-04T13:10:25.527Z,100860.69
2022-10-04T13:11:53.345Z,100819.19
2022-10-04T13:13:11.203Z,100805.97
2022-10-04T13:14:25.987Z,100860.03
2022-10-04T13:17:35.149Z,100836.00
2022-10-04T13:18:51.150Z,100815.00
2022-10-04T13:20:32.672Z,100829.44
2022-10-04T13:21:37.239Z,100859.50
2022-10-04T13:23:06.188Z,100839.63
2022-10-04T13:24:55.312Z,100848.69
2022-10-04T13:26:21.524Z,100851.66
2022-10-04T13:27:33.875Z,100841.69
2022-10-04T13:28:38.434Z,100852.78
2022-10-04T13:29:55.382Z,100852.13
2022-10-04T13:31:24.899Z,100852.59
2022-10-04T13:32:34.187Z,100807.81
2022-10-04T13:34:16.731Z,100846.16
2022-10-04T13:35:23.160Z,100833.09
2022-10-04T13:36:49.198Z,100843.44
2022-10-04T13:38:06.742Z,100841.13
2022-10-04T13:39:20.860Z,100824.69
2022-10-04T13:40:56.024Z,100768.59
2022-10-04T13:42:12.441Z,100844.09
2022-10-04T13:43:42.791Z,100846.81
2022-10-04T13:45:03.360Z,100841.38
2022-10-04T13:46:40.189Z,100840.75
2022-10-04T13:47:54.696Z,100834.13
2022-10-04T13:49:02.315Z,100842.41
2022-10-04T13:50:31.307Z,100835.53
2022-10-04T13:51:45.575Z,100832.47
2022-10-04T13:53:35.846Z,100819.75
2022-10-04T13:55:25.804Z,100801.16
2022-10-04T13:57:05.900Z,100812.41
2022-10-04T13:58:33.529Z,100773.50
2022-10-04T14:00:05.360Z,100815.66
2022-10-04T14:01:33.927Z,100797.09
2022-10-04T14:03:03.045Z,100812.59
2022-10-04T14:04:29.276Z,100791.44
2022-10-04T14:05:56.427Z,100806.50
2022-10-04T14:07:10.632Z,100805.88
2022-10-04T14:08:50.815Z,100767.28
2022-10-04T14:10:10.984Z,100801.09
2022-10-04T14:11:33.053Z,100803.16
2022-10-04T14:12:53.116Z,100808.41
2022-10-04T14:14:08.716Z,100798.41
2022-10-04T14:15:27.658Z,100798.78
2022-10-04T14:16:57.322Z,100793.84
2022-10-04T14:18:27.531Z,100790.75
2022-10-04T14:19:59.339Z,100747.34
2022-10-04T14:21:22.832Z,100790.59
2022-10-04T14:22:45.728Z,100791.97
2022-10-04T14:24:21.565Z,100780.63
2022-10-04T14:25:49.302Z,100794.75
2022-10-04T14:27:12.996Z,100792.25
2022-10-04T14:28:52.286Z,100790.59
2022-10-04T14:30:51.406Z,100788.97
2022-10-04T14:32:14.171Z,100791.88
2022-10-04T14:33:58.971Z,100786.47
2022-10-04T14:35:12.923Z,100789.16
2022-10-04T14:36:23.675Z,100779.75
2022-10-04T14:37:41.104Z,100737.81
2022-10-04T14:39:20.857Z,100776.84